createdAt,value
2023-03-17T00:01:55.938Z,4.81
2023-03-17T00:04:32.671Z,5.02
2023-03-17T00:07:00.017Z,5.07
2023-03-17T00:09:27.345Z,4.90
2023-03-17T00:11:54.642Z,4.86
2023-03-17T00:14:21.867Z,4.80
2023-03-17T00:16:50.477Z,4.83
2023-03-17T00:19:36.619Z,4.78
2023-03-17T00:22:06.772Z,4.94
2023-03-17T00:24:33.766Z,4.90
2023-03-17T00:27:01.239Z,4.81
2023-03-17T00:29:28.187Z,4.87
2023-03-17T00:31:57.410Z,4.97
2023-03-17T00:34:24.500Z,4.88
2023-03-17T00:36:52.349Z,4.93
2023-03-17T00:39:19.960Z,4.86
2023-03-17T00:41:49.851Z,4.91
2023-03-17T00:44:17.543Z,4.86
2023-03-17T00:46:44.791Z,4.82
2023-03-17T00:49:22.132Z,4.81
2023-03-17T00:51:50.177Z,4.87
2023-03-17T00:54:19.447Z,5.01
2023-03-17T00:56:48.188Z,4.93
2023-03-17T00:59:20.611Z,4.92
2023-03-17T01:01:48.268Z,4.90
2023-03-17T01:04:15.804Z,4.79
2023-03-17T01:06:43.348Z,4.75
2023-03-17T01:09:17.111Z,4.79
2023-03-17T01:11:44.424Z,5.10
2023-03-17T01:14:16.007Z,5.23
2023-03-17T01:16:43.273Z,5.18
2023-03-17T01:19:13.398Z,4.99
2023-03-17T01:21:41.643Z,4.93
2023-03-17T01:24:09.622Z,4.88
2023-03-17T01:26:36.953Z,4.85
2023-03-17T01:29:04.934Z,4.74
2023-03-17T01:31:32.075Z,4.90
2023-03-17T01:33:59.085Z,4.86
2023-03-17T01:36:26.468Z,5.13
2023-03-17T01:38:53.816Z,5.26
2023-03-17T01:41:21.221Z,4.97
2023-03-17T01:43:48.488Z,5.01
2023-03-17T01:46:35.368Z,5.12
2023-03-17T01:49:31.570Z,5.17
2023-03-17T01:52:09.126Z,5.03
2023-03-17T01:54:50.540Z,4.97
2023-03-17T01:57:53.431Z,5.02
2023-03-17T02:00:24.278Z,5.05
2023-03-17T02:02:55.548Z,5.10
2023-03-17T02:05:29.884Z,5.01
2023-03-17T02:07:57.426Z,5.05
2023-03-17T02:10:28.865Z,5.13
2023-03-17T02:12:59.987Z,5.15
2023-03-17T02:15:37.950Z,4.97
2023-03-17T02:18:05.282Z,4.96
2023-03-17T02:20:32.782Z,4.97
2023-03-17T02:23:00.893Z,4.83
2023-03-17T02:25:30.806Z,4.79
2023-03-17T02:28:04.033Z,4.73
2023-03-17T02:30:33.148Z,4.69
2023-03-17T02:33:00.202Z,4.63
2023-03-17T02:35:27.483Z,4.79
2023-03-17T02:37:54.520Z,4.72
2023-03-17T02:40:22.136Z,4.56
2023-03-17T02:42:49.524Z,4.45
2023-03-17T02:45:17.163Z,4.82
2023-03-17T02:47:44.512Z,4.82
2023-03-17T02:50:23.328Z,4.75
2023-03-17T02:52:51.274Z,4.72
2023-03-17T02:55:18.851Z,4.55
2023-03-17T02:57:46.266Z,4.48
2023-03-17T03:00:14.404Z,4.32
2023-03-17T03:02:42.235Z,4.36
2023-03-17T03:05:10.753Z,4.32
2023-03-17T03:07:37.797Z,4.33
2023-03-17T03:10:05.846Z,4.35
2023-03-17T03:12:33.626Z,4.26
2023-03-17T03:15:00.844Z,4.11
2023-03-17T03:17:27.803Z,4.22
2023-03-17T03:19:55.453Z,4.15
2023-03-17T03:22:22.495Z,4.07
2023-03-17T03:24:49.562Z,4.08
2023-03-17T03:27:17.018Z,3.94
2023-03-17T03:29:44.072Z,3.85
2023-03-17T03:32:11.619Z,3.99
2023-03-17T03:34:38.648Z,4.12
2023-03-17T03:37:06.036Z,3.98
2023-03-17T03:39:33.115Z,3.97
2023-03-17T03:42:00.734Z,3.96
2023-03-17T03:44:27.671Z,3.78
2023-03-17T03:46:57.987Z,3.70
2023-03-17T03:49:25.029Z,3.71
2023-03-17T03:51:52.075Z,3.64
2023-03-17T03:54:19.033Z,3.48
2023-03-17T03:56:45.955Z,3.43
2023-03-17T03:59:12.928Z,3.38
2023-03-17T04:01:40.226Z,3.33
2023-03-17T04:04:07.575Z,3.25
2023-03-17T04:06:34.564Z,3.22
2023-03-17T04:09:02.431Z,3.19
2023-03-17T04:11:29.482Z,3.08
2023-03-17T04:13:56.571Z,3.21
2023-03-17T04:16:23.971Z,3.12
2023-03-17T04:18:51.312Z,3.08
2023-03-17T04:21:19.076Z,3.09
2023-03-17T04:23:46.625Z,3.08
2023-03-17T04:26:13.825Z,3.02
2023-03-17T04:28:40.966Z,2.96
2023-03-17T04:31:12.441Z,2.97
2023-03-17T04:33:40.321Z,2.97
2023-03-17T04:36:08.666Z,2.99
2023-03-17T04:38:35.675Z,2.96
2023-03-17T04:41:03.121Z,2.84
2023-03-17T04:43:30.375Z,2.86
2023-03-17T04:45:57.449Z,2.86
2023-03-17T04:48:24.414Z,2.75
2023-03-17T04:50:51.769Z,2.57
2023-03-17T04:53:19.059Z,2.91
2023-03-17T04:55:46.004Z,2.87
2023-03-17T04:58:21.113Z,2.94
2023-03-17T05:00:55.088Z,2.85
2023-03-17T05:03:27.203Z,2.84
2023-03-17T05:05:55.576Z,2.81
2023-03-17T05:08:22.674Z,2.71
2023-03-17T05:10:51.134Z,2.38
2023-03-17T05:13:19.190Z,2.30
2023-03-17T05:15:51.629Z,2.46
2023-03-17T05:18:20.447Z,2.49
2023-03-17T05:20:47.439Z,2.50
2023-03-17T05:23:15.180Z,2.46
2023-03-17T05:25:42.279Z,2.41
2023-03-17T05:28:10.209Z,2.43
2023-03-17T05:30:37.967Z,2.44
2023-03-17T05:33:06.103Z,2.45
2023-03-17T05:35:33.423Z,2.55
2023-03-17T05:38:00.780Z,2.54
2023-03-17T05:40:28.233Z,2.49
2023-03-17T05:42:55.541Z,2.53
2023-03-17T05:45:23.072Z,2.83
2023-03-17T05:47:50.479Z,2.96
2023-03-17T05:50:17.952Z,2.81
2023-03-17T05:52:45.226Z,2.76
2023-03-17T05:55:12.624Z,2.61
2023-03-17T05:57:39.998Z,2.74
2023-03-17T06:00:08.442Z,2.75
2023-03-17T06:02:35.881Z,2.67
2023-03-17T06:05:03.736Z,2.37
2023-03-17T06:07:41.314Z,2.45
2023-03-17T06:10:16.259Z,2.45
2023-03-17T06:12:43.549Z,2.54
2023-03-17T06:15:11.055Z,2.67
2023-03-17T06:17:39.160Z,2.87
2023-03-17T06:20:06.762Z,2.99
2023-03-17T06:22:33.760Z,2.96
2023-03-17T06:25:01.997Z,2.83
2023-03-17T06:27:28.987Z,2.91
2023-03-17T06:29:57.561Z,3.54
2023-03-17T06:32:25.060Z,3.45
2023-03-17T06:34:53.820Z,3.69
2023-03-17T06:37:21.545Z,3.96
2023-03-17T06:39:48.603Z,3.87
2023-03-17T06:42:17.283Z,3.72
2023-03-17T06:44:45.411Z,3.84
2023-03-17T06:47:13.568Z,3.97
2023-03-17T06:49:41.109Z,4.20
2023-03-17T06:52:08.885Z,4.26
2023-03-17T06:54:36.704Z,4.39
2023-03-17T06:57:04.171Z,4.55
2023-03-17T06:59:31.591Z,4.64
2023-03-17T07:01:59.465Z,4.73
2023-03-17T07:04:27.330Z,4.74
2023-03-17T07:06:54.763Z,4.95
2023-03-17T07:09:22.432Z,5.02
2023-03-17T07:11:49.970Z,5.11
2023-03-17T07:14:17.380Z,5.12
2023-03-17T07:16:45.256Z,5.14
2023-03-17T07:19:13.060Z,5.16
2023-03-17T07:21:41.043Z,5.17
2023-03-17T07:24:08.631Z,5.19
2023-03-17T07:26:36.132Z,5.23
2023-03-17T07:29:03.701Z,5.31
2023-03-17T07:31:31.197Z,5.29
2023-03-17T07:33:58.616Z,5.39
2023-03-17T07:36:26.294Z,5.43
2023-03-17T07:38:53.602Z,5.55
2023-03-17T07:41:22.321Z,5.60
2023-03-17T07:43:49.989Z,5.71
2023-03-17T07:46:17.581Z,5.67
2023-03-17T07:48:45.055Z,5.93
2023-03-17T07:51:19.312Z,6.04
2023-03-17T07:53:47.127Z,6.20
2023-03-17T07:56:14.496Z,6.30
2023-03-17T07:58:42.019Z,6.37
2023-03-17T08:01:09.897Z,6.38
2023-03-17T08:03:39.878Z,6.48
2023-03-17T08:06:08.746Z,6.60
2023-03-17T08:08:37.032Z,6.63
2023-03-17T08:11:06.101Z,6.61
2023-03-17T08:13:34.103Z,6.78
2023-03-17T08:16:21.595Z,6.86
2023-03-17T08:18:48.661Z,7.02
2023-03-17T08:21:16.931Z,7.06
2023-03-17T08:23:44.500Z,7.15
2023-03-17T08:26:14.369Z,7.28
2023-03-17T08:28:41.834Z,7.48
2023-03-17T08:31:13.556Z,7.42
2023-03-17T08:33:42.590Z,7.60
2023-03-17T08:36:11.480Z,7.72
2023-03-17T08:38:40.173Z,7.91
2023-03-17T08:41:12.486Z,8.08
2023-03-17T08:43:40.699Z,8.08
2023-03-17T08:46:22.475Z,8.18
2023-03-17T08:48:52.531Z,8.43
2023-03-17T08:51:24.570Z,8.81
2023-03-17T08:53:52.990Z,8.93
2023-03-17T08:56:20.687Z,8.93
2023-03-17T08:58:48.960Z,8.90
2023-03-17T09:01:17.101Z,9.00
2023-03-17T09:03:45.299Z,9.06
2023-03-17T09:06:13.635Z,9.08
2023-03-17T09:08:45.152Z,9.25
2023-03-17T09:11:16.775Z,9.49
2023-03-17T09:13:44.960Z,9.67
2023-03-17T09:16:16.360Z,9.52
2023-03-17T09:18:44.365Z,9.75
2023-03-17T09:21:14.130Z,9.60
2023-03-17T09:23:41.696Z,9.70
2023-03-17T09:26:09.123Z,10.20
2023-03-17T09:28:37.365Z,10.52
2023-03-17T09:31:11.616Z,10.36
2023-03-17T09:33:42.359Z,10.61
2023-03-17T09:36:10.775Z,10.46
2023-03-17T09:38:38.571Z,10.31
2023-03-17T09:41:20.754Z,10.58
2023-03-17T09:44:32.285Z,10.61
2023-03-17T09:47:28.473Z,10.94
2023-03-17T09:50:03.508Z,10.87
2023-03-17T09:52:37.490Z,10.86
2023-03-17T09:55:08.648Z,10.96
2023-03-17T09:57:38.467Z,11.05
2023-03-17T10:00:23.208Z,11.04
2023-03-17T10:02:50.531Z,11.08
2023-03-17T10:05:21.739Z,11.27
2023-03-17T10:08:30.706Z,11.20
2023-03-17T10:11:25.620Z,11.62
2023-03-17T10:14:23.833Z,11.33
2023-03-17T10:17:16.528Z,11.34
2023-03-17T10:19:59.854Z,11.46
2023-03-17T10:22:59.049Z,11.68
2023-03-17T10:25:37.578Z,11.65
2023-03-17T10:28:21.956Z,11.64
2023-03-17T10:30:49.491Z,11.71
2023-03-17T10:33:16.925Z,11.70
2023-03-17T10:35:45.072Z,11.50
2023-03-17T10:38:22.685Z,11.78
2023-03-17T10:41:09.965Z,11.63
2023-03-17T10:43:50.772Z,11.78
2023-03-17T10:46:25.750Z,11.88
2023-03-17T10:48:58.340Z,12.06
2023-03-17T10:51:33.552Z,11.89
2023-03-17T10:54:08.177Z,12.03
2023-03-17T10:56:38.143Z,12.09
2023-03-17T10:59:25.338Z,12.07
2023-03-17T11:02:00.845Z,12.06
2023-03-17T11:04:34.349Z,12.07
2023-03-17T11:07:17.577Z,12.08
2023-03-17T11:09:49.196Z,12.26
2023-03-17T11:12:29.952Z,12.42
2023-03-17T11:15:07.421Z,12.32
2023-03-17T11:17:59.027Z,12.58
2023-03-17T11:20:47.039Z,12.46
2023-03-17T11:23:47.469Z,12.47
2023-03-17T11:26:38.288Z,12.67
2023-03-17T11:29:23.824Z,13.06
2023-03-17T11:32:01.817Z,12.90
2023-03-17T11:34:52.607Z,12.81
2023-03-17T11:37:28.096Z,13.11
2023-03-17T11:40:43.809Z,13.19
2023-03-17T11:43:45.442Z,13.37
2023-03-17T11:46:28.313Z,13.38
2023-03-17T11:49:16.769Z,13.32
2023-03-17T11:52:14.504Z,13.57
2023-03-17T11:55:00.316Z,13.80
2023-03-17T11:58:02.461Z,13.65
2023-03-17T12:00:42.077Z,13.81
2023-03-17T12:03:43.672Z,13.60
2023-03-17T12:06:20.968Z,13.75
2023-03-17T12:09:01.040Z,13.91
2023-03-17T12:11:37.420Z,14.12
2023-03-17T12:14:33.865Z,13.89
2023-03-17T12:17:05.378Z,13.68
2023-03-17T12:19:58.394Z,13.75
2023-03-17T12:22:35.027Z,13.69
2023-03-17T12:25:10.284Z,13.83
2023-03-17T12:27:48.223Z,13.97
2023-03-17T12:30:33.387Z,13.76
2023-03-17T12:33:36.971Z,13.63
2023-03-17T12:36:06.920Z,13.70
2023-03-17T12:39:05.679Z,13.64
2023-03-17T12:42:10.054Z,13.86
2023-03-17T12:44:53.308Z,13.78
2023-03-17T12:47:57.288Z,13.86
2023-03-17T12:50:26.037Z,14.00
2023-03-17T12:53:31.663Z,14.01
2023-03-17T12:56:27.479Z,14.08
2023-03-17T12:59:24.215Z,14.30
2023-03-17T13:02:16.365Z,14.37
2023-03-17T13:05:00.866Z,14.23
2023-03-17T13:07:51.657Z,14.25
2023-03-17T13:10:42.003Z,14.10
2023-03-17T13:13:30.363Z,14.13
2023-03-17T13:16:00.688Z,14.32
2023-03-17T13:18:36.734Z,14.45
2023-03-17T13:21:04.225Z,14.53
2023-03-17T13:23:59.441Z,14.43
2023-03-17T13:26:53.674Z,14.30
2023-03-17T13:29:39.495Z,14.44
2023-03-17T13:32:27.406Z,14.41
2023-03-17T13:35:01.796Z,14.39
2023-03-17T13:38:03.466Z,14.36
2023-03-17T13:40:40.654Z,14.28
2023-03-17T13:43:43.486Z,14.42
2023-03-17T13:46:30.446Z,14.38
2023-03-17T13:49:04.191Z,14.46
2023-03-17T13:51:34.692Z,14.48
2023-03-17T13:54:30.443Z,14.50
2023-03-17T13:57:24.173Z,14.56
2023-03-17T14:00:17.721Z,14.58
2023-03-17T14:02:46.238Z,14.64
2023-03-17T14:05:38.152Z,14.58
2023-03-17T14:08:18.471Z,14.69
2023-03-17T14:11:00.652Z,14.65
2023-03-17T14:14:31.239Z,14.66
2023-03-17T14:17:29.332Z,14.70
2023-03-17T14:20:18.580Z,14.78
2023-03-17T14:26:37.586Z,14.55
2023-03-17T14:29:05.639Z,14.49
2023-03-17T14:31:33.053Z,14.44
2023-03-17T14:34:01.719Z,14.37
2023-03-17T14:36:33.670Z,14.28
2023-03-17T14:39:01.031Z,14.29
2023-03-17T14:41:29.337Z,14.37
2023-03-17T14:44:00.978Z,14.26
2023-03-17T14:46:33.971Z,14.30
2023-03-17T14:49:17.020Z,14.19
2023-03-17T14:51:44.918Z,14.20
2023-03-17T14:54:22.578Z,14.26
2023-03-17T14:57:02.228Z,14.31
2023-03-17T14:59:38.594Z,14.37
2023-03-17T15:02:24.044Z,14.31
2023-03-17T15:05:19.860Z,14.35
2023-03-17T15:07:47.231Z,14.36
2023-03-17T15:10:29.620Z,14.30
2023-03-17T15:13:06.388Z,14.32
2023-03-17T15:15:38.307Z,14.34
2023-03-17T15:18:12.010Z,14.30
2023-03-17T15:20:39.685Z,14.28
2023-03-17T15:23:18.243Z,14.28
2023-03-17T15:25:55.856Z,14.25
2023-03-17T15:28:27.734Z,14.23
2023-03-17T15:31:05.938Z,14.22
2023-03-17T15:33:39.698Z,14.23
2023-03-17T15:36:07.782Z,14.22
2023-03-17T15:38:38.912Z,14.25
2023-03-17T15:41:06.348Z,14.23
2023-03-17T15:43:34.819Z,14.18
2023-03-17T15:46:10.555Z,14.16
2023-03-17T15:48:38.044Z,14.07
2023-03-17T15:51:06.421Z,14.07
2023-03-17T15:53:33.801Z,14.09
2023-03-17T15:56:01.378Z,14.10
2023-03-17T15:58:28.755Z,14.09
2023-03-17T16:00:57.940Z,14.11
2023-03-17T16:03:32.916Z,14.10
2023-03-17T16:06:02.684Z,14.06
2023-03-17T16:08:30.243Z,14.06
2023-03-17T16:10:57.610Z,13.93
2023-03-17T16:13:24.988Z,13.87
2023-03-17T16:16:00.403Z,13.91
2023-03-17T16:18:37.701Z,13.88
2023-03-17T16:21:05.691Z,13.85
2023-03-17T16:23:37.026Z,13.73
2023-03-17T16:26:14.841Z,13.76
2023-03-17T16:28:45.163Z,13.72
2023-03-17T16:31:22.613Z,13.67
2023-03-17T16:33:50.807Z,13.74
2023-03-17T16:36:20.091Z,13.73
2023-03-17T16:38:47.944Z,13.76
2023-03-17T16:41:27.639Z,13.62
2023-03-17T16:44:02.543Z,13.47
2023-03-17T16:46:35.085Z,13.36
2023-03-17T16:49:04.322Z,13.36
2023-03-17T16:51:31.743Z,13.29
2023-03-17T16:53:58.719Z,13.31
2023-03-17T16:56:27.008Z,13.08
2023-03-17T16:58:54.408Z,13.09
2023-03-17T17:01:25.501Z,13.12
2023-03-17T17:03:53.415Z,13.08
2023-03-17T17:06:22.859Z,13.13
2023-03-17T17:08:51.180Z,13.02
2023-03-17T17:11:19.722Z,13.05
2023-03-17T17:13:48.892Z,12.96
2023-03-17T17:16:30.762Z,12.89
2023-03-17T17:18:59.659Z,12.88
2023-03-17T17:21:27.646Z,12.90
2023-03-17T17:23:55.528Z,12.75
2023-03-17T17:26:23.110Z,12.51
2023-03-17T17:28:50.564Z,12.50
2023-03-17T17:31:18.041Z,12.50
2023-03-17T17:33:45.616Z,12.44
2023-03-17T17:36:16.641Z,12.49
2023-03-17T17:38:44.261Z,12.52
2023-03-17T17:41:12.963Z,12.49
2023-03-17T17:43:40.802Z,12.45
2023-03-17T17:46:21.545Z,12.43
2023-03-17T17:48:49.438Z,12.43
2023-03-17T17:51:17.027Z,12.34
2023-03-17T17:53:44.814Z,12.30
2023-03-17T17:56:16.095Z,12.26
2023-03-17T17:58:45.368Z,12.20
2023-03-17T18:01:14.239Z,12.24
2023-03-17T18:03:42.974Z,12.30
2023-03-17T18:06:12.907Z,12.18
2023-03-17T18:08:40.589Z,12.13
2023-03-17T18:11:08.790Z,12.09
2023-03-17T18:13:38.999Z,12.11
2023-03-17T18:16:10.053Z,12.11
2023-03-17T18:18:40.688Z,12.00
2023-03-17T18:21:08.242Z,11.90
2023-03-17T18:23:36.523Z,11.93
2023-03-17T18:26:06.188Z,11.92
2023-03-17T18:28:34.167Z,11.90
2023-03-17T18:31:10.649Z,11.87
2023-03-17T18:33:39.146Z,11.76
2023-03-17T18:36:07.135Z,11.74
2023-03-17T18:38:35.746Z,11.63
2023-03-17T18:41:04.212Z,11.60
2023-03-17T18:43:31.429Z,11.52
2023-03-17T18:45:58.886Z,11.50
2023-03-17T18:48:26.347Z,11.46
2023-03-17T18:50:53.996Z,11.26
2023-03-17T18:53:22.383Z,11.16
2023-03-17T18:55:49.777Z,10.97
2023-03-17T18:58:17.203Z,10.98
2023-03-17T19:00:44.636Z,10.80
2023-03-17T19:03:12.087Z,10.85
2023-03-17T19:05:39.702Z,10.79
2023-03-17T19:08:07.046Z,10.68
2023-03-17T19:10:34.609Z,10.60
2023-03-17T19:13:02.018Z,10.62
2023-03-17T19:15:30.024Z,10.83
2023-03-17T19:17:57.478Z,10.98
2023-03-17T19:20:24.963Z,10.82
2023-03-17T19:22:53.445Z,10.70
2023-03-17T19:25:21.338Z,10.86
2023-03-17T19:27:48.310Z,10.76
2023-03-17T19:30:16.210Z,10.49
2023-03-17T19:32:43.447Z,10.38
2023-03-17T19:35:11.729Z,10.42
2023-03-17T19:37:39.102Z,10.43
2023-03-17T19:40:10.304Z,10.52
2023-03-17T19:42:37.282Z,10.22
2023-03-17T19:45:06.152Z,10.30
2023-03-17T19:47:33.086Z,10.46
2023-03-17T19:50:00.186Z,10.44
2023-03-17T19:52:27.137Z,10.57
2023-03-17T19:54:54.199Z,10.79
2023-03-17T19:57:21.236Z,10.69
2023-03-17T19:59:48.232Z,10.77
2023-03-17T20:02:16.793Z,10.61
2023-03-17T20:04:44.649Z,10.60
2023-03-17T20:07:11.893Z,10.29
2023-03-17T20:09:39.434Z,10.05
2023-03-17T20:12:08.097Z,10.17
2023-03-17T20:14:35.174Z,10.18
2023-03-17T20:17:02.309Z,9.96
2023-03-17T20:19:29.340Z,9.99
2023-03-17T20:21:58.550Z,9.97
2023-03-17T20:24:27.109Z,10.05
2023-03-17T20:26:57.000Z,10.12
2023-03-17T20:29:24.465Z,9.98
2023-03-17T20:31:51.804Z,9.94
2023-03-17T20:34:18.893Z,9.72
2023-03-17T20:36:46.126Z,9.58
2023-03-17T20:39:19.662Z,9.58
2023-03-17T20:41:51.703Z,9.72
2023-03-17T20:44:19.411Z,10.03
2023-03-17T20:46:47.674Z,10.10
2023-03-17T20:49:17.808Z,9.94
2023-03-17T20:51:46.350Z,10.03
2023-03-17T20:54:13.829Z,10.07
2023-03-17T20:56:41.212Z,10.08
2023-03-17T20:59:09.797Z,10.09
2023-03-17T21:01:38.764Z,9.98
2023-03-17T21:04:09.308Z,9.85
2023-03-17T21:06:37.554Z,9.75
2023-03-17T21:09:05.524Z,9.81
2023-03-17T21:11:32.567Z,9.74
2023-03-17T21:13:59.688Z,9.78
2023-03-17T21:16:29.862Z,9.77
2023-03-17T21:18:57.786Z,9.76
2023-03-17T21:21:25.167Z,9.88
2023-03-17T21:23:52.252Z,10.01
2023-03-17T21:26:19.629Z,10.07
2023-03-17T21:28:47.622Z,10.07
2023-03-17T21:31:16.037Z,10.02
2023-03-17T21:33:43.449Z,9.96
2023-03-17T21:36:11.241Z,9.99
2023-03-17T21:38:39.005Z,10.08
2023-03-17T21:41:29.236Z,9.96
2023-03-17T21:44:00.932Z,9.87
2023-03-17T21:46:28.214Z,9.73
2023-03-17T21:48:56.115Z,9.62
2023-03-17T21:51:23.614Z,9.47
2023-03-17T21:53:50.914Z,9.51
2023-03-17T21:56:18.759Z,9.47
2023-03-17T21:58:45.822Z,9.53
2023-03-17T22:01:12.900Z,9.54
2023-03-17T22:03:40.103Z,9.57
2023-03-17T22:06:08.298Z,9.60
2023-03-17T22:08:35.747Z,9.60
2023-03-17T22:11:09.120Z,9.55
2023-03-17T22:13:37.391Z,9.56
2023-03-17T22:16:05.183Z,9.56
2023-03-17T22:18:32.802Z,9.47
2023-03-17T22:21:00.703Z,9.47
2023-03-17T22:23:29.079Z,9.48
2023-03-17T22:25:57.411Z,9.50
2023-03-17T22:28:25.571Z,9.53
2023-03-17T22:30:52.614Z,9.69
2023-03-17T22:33:19.566Z,9.66
2023-03-17T22:35:47.018Z,9.70
2023-03-17T22:38:14.102Z,9.75
2023-03-17T22:40:41.506Z,9.95
2023-03-17T22:43:08.585Z,9.91
2023-03-17T22:45:35.645Z,9.92
2023-03-17T22:48:02.636Z,9.85
2023-03-17T22:50:29.887Z,9.93
2023-03-17T22:52:57.099Z,10.06
2023-03-17T22:55:24.102Z,10.13
2023-03-17T22:57:51.589Z,10.09
2023-03-17T23:00:19.749Z,10.15
2023-03-17T23:02:46.781Z,10.28
2023-03-17T23:05:14.638Z,10.43
2023-03-17T23:07:50.305Z,10.37
2023-03-17T23:10:23.171Z,10.39
2023-03-17T23:12:51.457Z,10.28
2023-03-17T23:15:19.948Z,10.12
2023-03-17T23:17:47.601Z,10.04
2023-03-17T23:20:15.464Z,10.01
2023-03-17T23:22:43.086Z,9.97
2023-03-17T23:25:12.653Z,9.81
2023-03-17T23:27:40.751Z,9.75
2023-03-17T23:30:11.281Z,9.83
2023-03-17T23:32:40.784Z,9.94
2023-03-17T23:35:09.475Z,10.09
2023-03-17T23:37:37.328Z,10.09
2023-03-17T23:40:09.670Z,10.12
2023-03-17T23:42:37.066Z,10.07
2023-03-17T23:45:04.862Z,10.00
2023-03-17T23:47:31.977Z,9.91
2023-03-17T23:49:59.022Z,9.87
2023-03-17T23:52:26.332Z,9.91
2023-03-17T23:54:53.517Z,9.76
2023-03-17T23:57:20.944Z,9.69
2023-03-17T23:59:47.958Z,9.91
